createdAt,value
2019-05-10T00:00:24.791Z,9.8
2019-05-10T00:01:32.005Z,9.8
2019-05-10T00:02:39.213Z,9.8
2019-05-10T00:03:46.427Z,9.8
2019-05-10T00:04:53.652Z,9.8
2019-05-10T00:06:00.871Z,9.9
2019-05-10T00:07:07.802Z,9.8
2019-05-10T00:08:15.011Z,9.8
2019-05-10T00:09:22.224Z,9.8
2019-05-10T00:10:29.492Z,9.8
2019-05-10T00:11:36.433Z,9.9
2019-05-10T00:12:43.640Z,9.9
2019-05-10T00:13:50.850Z,9.9
2019-05-10T00:14:58.120Z,9.9
2019-05-10T00:16:05.512Z,9.9
2019-05-10T00:17:12.714Z,9.9
2019-05-10T00:18:19.933Z,9.9
2019-05-10T00:19:27.157Z,9.8
2019-05-10T00:20:34.088Z,9.8
2019-05-10T00:21:41.032Z,9.8
2019-05-10T00:22:48.263Z,9.8
2019-05-10T00:23:55.197Z,9.9
2019-05-10T00:25:05.356Z,9.9
2019-05-10T00:26:12.606Z,9.9
2019-05-10T00:27:19.818Z,9.9
2019-05-10T00:28:27.039Z,9.9
2019-05-10T00:29:34.242Z,9.9
2019-05-10T00:30:41.452Z,9.8
2019-05-10T00:31:48.680Z,9.8
2019-05-10T00:32:55.888Z,9.8
2019-05-10T00:34:03.106Z,9.8
2019-05-10T00:35:10.316Z,9.8
2019-05-10T00:36:17.522Z,9.8
2019-05-10T00:37:24.795Z,9.8
2019-05-10T00:38:32.001Z,9.7
2019-05-10T00:39:38.945Z,9.7
2019-05-10T00:40:46.164Z,9.7
2019-05-10T00:41:53.392Z,9.6
2019-05-10T00:43:00.613Z,9.6
2019-05-10T00:44:07.832Z,9.6
2019-05-10T00:45:14.785Z,9.6
2019-05-10T00:46:21.997Z,9.6
2019-05-10T00:47:29.215Z,9.5
2019-05-10T00:48:36.421Z,9.5
2019-05-10T00:49:43.636Z,9.5
2019-05-10T00:50:50.569Z,9.5
2019-05-10T00:51:57.780Z,9.5
2019-05-10T00:53:04.985Z,9.4
2019-05-10T00:54:12.194Z,9.4
2019-05-10T00:55:20.110Z,9.4
2019-05-10T00:56:27.315Z,9.4
2019-05-10T00:57:34.527Z,9.4
2019-05-10T00:58:41.736Z,9.4
2019-05-10T00:59:48.684Z,9.3
2019-05-10T01:00:55.902Z,9.3
2019-05-10T01:02:02.870Z,9.3
2019-05-10T01:03:10.062Z,9.2
2019-05-10T01:04:16.991Z,9.1
2019-05-10T01:05:23.934Z,9.1
2019-05-10T01:06:31.141Z,9
2019-05-10T01:07:38.347Z,9
2019-05-10T01:08:45.567Z,8.9
2019-05-10T01:09:52.790Z,8.9
2019-05-10T01:10:59.728Z,8.8
2019-05-10T01:12:06.956Z,8.8
2019-05-10T01:13:14.177Z,8.7
2019-05-10T01:14:21.112Z,8.7
2019-05-10T01:15:28.051Z,8.6
2019-05-10T01:16:35.268Z,8.5
2019-05-10T01:17:42.474Z,8.5
2019-05-10T01:18:49.135Z,8.5
2019-05-10T01:19:56.415Z,8.5
2019-05-10T01:21:04.211Z,8.5
2019-05-10T01:22:11.433Z,8.4
2019-05-10T01:23:18.445Z,8.4
2019-05-10T01:24:25.657Z,8.4
2019-05-10T01:25:36.019Z,8.5
2019-05-10T01:26:43.265Z,8.5
2019-05-10T01:27:50.481Z,8.5
2019-05-10T01:28:57.407Z,8.5
2019-05-10T01:30:04.338Z,8.5
2019-05-10T01:31:11.543Z,8.5
2019-05-10T01:32:18.766Z,8.5
2019-05-10T01:33:25.688Z,8.4
2019-05-10T01:34:32.619Z,8.5
2019-05-10T01:35:39.827Z,8.5
2019-05-10T01:36:46.763Z,8.5
2019-05-10T01:37:53.980Z,8.5
2019-05-10T01:39:01.203Z,8.5
2019-05-10T01:40:08.408Z,8.6
2019-05-10T01:41:15.626Z,8.6
2019-05-10T01:42:22.845Z,8.6
2019-05-10T01:43:30.105Z,8.6
2019-05-10T01:44:37.354Z,8.6
2019-05-10T01:45:44.629Z,8.6
2019-05-10T01:46:51.838Z,8.6
2019-05-10T01:47:58.797Z,8.6
2019-05-10T01:49:06.011Z,8.6
2019-05-10T01:50:12.959Z,8.6
2019-05-10T01:51:19.884Z,8.6
2019-05-10T01:52:27.105Z,8.6
2019-05-10T01:53:34.321Z,8.6
2019-05-10T01:54:41.556Z,8.6
2019-05-10T01:55:53.160Z,8.6
2019-05-10T01:57:00.396Z,8.6
2019-05-10T01:58:07.595Z,8.6
2019-05-10T01:59:14.521Z,8.6
2019-05-10T02:00:21.733Z,8.6
2019-05-10T02:01:28.958Z,8.7
2019-05-10T02:02:36.166Z,8.7
2019-05-10T02:03:43.461Z,8.7
2019-05-10T02:04:50.379Z,8.6
2019-05-10T02:05:57.027Z,8.6
2019-05-10T02:07:04.238Z,8.6
2019-05-10T02:08:11.233Z,8.7
2019-05-10T02:09:18.436Z,8.7
2019-05-10T02:10:25.385Z,8.7
2019-05-10T02:11:32.315Z,8.7
2019-05-10T02:12:39.520Z,8.7
2019-05-10T02:13:46.727Z,8.6
2019-05-10T02:14:53.959Z,8.7
2019-05-10T02:16:01.161Z,8.6
2019-05-10T02:17:08.397Z,8.6
2019-05-10T02:18:15.605Z,8.6
2019-05-10T02:19:22.546Z,8.6
2019-05-10T02:20:29.972Z,8.5
2019-05-10T02:21:37.304Z,8.5
2019-05-10T02:22:44.524Z,8.5
2019-05-10T02:23:51.737Z,8.5
2019-05-10T02:24:58.953Z,8.5
2019-05-10T02:26:10.182Z,8.4
2019-05-10T02:27:17.453Z,8.4
2019-05-10T02:28:24.674Z,8.4
2019-05-10T02:29:31.881Z,8.4
2019-05-10T02:30:38.901Z,8.3
2019-05-10T02:31:46.156Z,8.3
2019-05-10T02:32:53.391Z,8.3
2019-05-10T02:34:00.328Z,8.3
2019-05-10T02:35:07.525Z,8.2
2019-05-10T02:36:14.729Z,8.2
2019-05-10T02:37:21.710Z,8.1
2019-05-10T02:38:28.918Z,8.1
2019-05-10T02:39:36.125Z,8.1
2019-05-10T02:40:43.335Z,8.1
2019-05-10T02:41:50.546Z,8
2019-05-10T02:42:57.761Z,8
2019-05-10T02:44:04.985Z,8
2019-05-10T02:45:12.191Z,7.9
2019-05-10T02:46:19.388Z,7.9
2019-05-10T02:47:26.606Z,7.9
2019-05-10T02:48:33.807Z,7.9
2019-05-10T02:49:41.014Z,7.9
2019-05-10T02:50:47.946Z,7.8
2019-05-10T02:51:55.149Z,7.8
2019-05-10T02:53:02.087Z,7.8
2019-05-10T02:54:09.325Z,7.8
2019-05-10T02:55:16.561Z,7.8
2019-05-10T02:56:31.685Z,7.9
2019-05-10T02:57:38.811Z,7.9
2019-05-10T02:58:45.759Z,7.9
2019-05-10T02:59:53.031Z,7.9
2019-05-10T03:00:59.967Z,7.9
2019-05-10T03:02:07.194Z,7.9
2019-05-10T03:03:14.402Z,7.9
2019-05-10T03:04:21.367Z,7.9
2019-05-10T03:05:28.295Z,8
2019-05-10T03:06:35.095Z,7.9
2019-05-10T03:07:42.315Z,8
2019-05-10T03:08:49.522Z,8
2019-05-10T03:09:56.749Z,8
2019-05-10T03:11:03.977Z,8
2019-05-10T03:12:10.919Z,8
2019-05-10T03:13:18.125Z,8.1
2019-05-10T03:14:25.091Z,8.1
2019-05-10T03:15:32.035Z,8.1
2019-05-10T03:16:39.238Z,8.1
2019-05-10T03:17:46.441Z,8.2
2019-05-10T03:18:53.713Z,8.2
2019-05-10T03:20:00.741Z,8.2
2019-05-10T03:21:07.968Z,8.3
2019-05-10T03:22:15.169Z,8.2
2019-05-10T03:23:22.377Z,8.3
2019-05-10T03:24:29.329Z,8.3
2019-05-10T03:25:36.540Z,8.3
2019-05-10T03:26:51.919Z,8.3
2019-05-10T03:27:59.163Z,8.3
2019-05-10T03:29:06.091Z,8.4
2019-05-10T03:30:13.531Z,8.4
2019-05-10T03:31:20.855Z,8.4
2019-05-10T03:32:28.077Z,8.4
2019-05-10T03:33:35.019Z,8.4
2019-05-10T03:34:42.383Z,8.5
2019-05-10T03:35:49.118Z,8.5
2019-05-10T03:36:56.459Z,8.5
2019-05-10T03:38:03.682Z,8.5
2019-05-10T03:39:25.603Z,8.5
2019-05-10T03:40:32.804Z,8.5
2019-05-10T03:41:39.741Z,8.5
2019-05-10T03:42:46.952Z,8.5
2019-05-10T03:43:54.159Z,8.5
2019-05-10T03:45:01.386Z,8.5
2019-05-10T03:46:08.598Z,8.6
2019-05-10T03:47:15.803Z,8.6
2019-05-10T03:48:23.023Z,8.6
2019-05-10T03:49:30.015Z,8.6
2019-05-10T03:50:37.234Z,8.6
2019-05-10T03:51:44.529Z,8.6
2019-05-10T03:52:53.136Z,8.6
2019-05-10T03:53:59.792Z,8.6
2019-05-10T03:55:06.750Z,8.6
2019-05-10T03:56:13.971Z,8.6
2019-05-10T03:57:21.175Z,8.5
2019-05-10T03:58:28.126Z,8.5
2019-05-10T03:59:35.337Z,8.5
2019-05-10T04:00:42.271Z,8.5
2019-05-10T04:01:49.475Z,8.5
2019-05-10T04:02:56.699Z,8.5
2019-05-10T04:04:03.621Z,8.5
2019-05-10T04:05:15.588Z,8.5
2019-05-10T04:06:22.793Z,8.5
2019-05-10T04:07:30.024Z,8.6
2019-05-10T04:08:37.231Z,8.6
2019-05-10T04:09:44.446Z,8.5
2019-05-10T04:10:51.662Z,8.6
2019-05-10T04:11:58.909Z,8.5
2019-05-10T04:13:06.123Z,8.6
2019-05-10T04:14:13.096Z,8.6
2019-05-10T04:15:20.236Z,8.6
2019-05-10T04:16:27.465Z,8.6
2019-05-10T04:17:34.673Z,8.6
2019-05-10T04:18:41.885Z,8.6
2019-05-10T04:19:49.100Z,8.6
2019-05-10T04:20:56.301Z,8.6
2019-05-10T04:22:03.503Z,8.6
2019-05-10T04:23:10.723Z,8.6
2019-05-10T04:24:17.938Z,8.6
2019-05-10T04:25:25.157Z,8.6
2019-05-10T04:26:32.400Z,8.6
2019-05-10T04:27:39.623Z,8.6
2019-05-10T04:28:46.812Z,8.6
2019-05-10T04:29:54.027Z,8.7
2019-05-10T04:31:01.236Z,8.7
2019-05-10T04:32:08.442Z,8.7
2019-05-10T04:33:15.371Z,8.7
2019-05-10T04:34:22.608Z,8.7
2019-05-10T04:35:29.799Z,8.7
2019-05-10T04:36:37.057Z,8.7
2019-05-10T04:37:43.995Z,8.6
2019-05-10T04:38:51.231Z,8.6
2019-05-10T04:39:58.443Z,8.6
2019-05-10T04:41:05.666Z,8.6
2019-05-10T04:42:12.922Z,8.6
2019-05-10T04:43:19.852Z,8.6
2019-05-10T04:44:27.070Z,8.6
2019-05-10T04:45:34.280Z,8.6
2019-05-10T04:46:41.583Z,8.6
2019-05-10T04:47:48.818Z,8.6
2019-05-10T04:48:56.111Z,8.6
2019-05-10T04:50:03.026Z,8.6
2019-05-10T04:51:10.229Z,8.6
2019-05-10T04:52:17.442Z,8.6
2019-05-10T04:53:24.374Z,8.6
2019-05-10T04:54:31.572Z,8.6
2019-05-10T04:55:38.523Z,8.6
2019-05-10T04:56:45.721Z,8.6
2019-05-10T04:57:52.934Z,8.6
2019-05-10T04:59:00.141Z,8.6
2019-05-10T05:00:07.395Z,8.6
2019-05-10T05:01:14.605Z,8.6
2019-05-10T05:02:22.874Z,8.6
2019-05-10T05:03:30.098Z,8.7
2019-05-10T05:04:37.307Z,8.7
2019-05-10T05:05:44.510Z,8.7
2019-05-10T05:06:51.728Z,8.7
2019-05-10T05:07:58.930Z,8.7
2019-05-10T05:09:05.882Z,8.8
2019-05-10T05:10:12.823Z,8.9
2019-05-10T05:11:20.028Z,8.9
2019-05-10T05:12:27.251Z,9
2019-05-10T05:13:34.191Z,9.1
2019-05-10T05:14:41.414Z,9.2
2019-05-10T05:15:48.617Z,9.3
2019-05-10T05:16:55.831Z,9.3
2019-05-10T05:18:03.089Z,9.4
2019-05-10T05:19:10.296Z,9.4
2019-05-10T05:20:17.224Z,9.5
2019-05-10T05:21:24.165Z,9.5
2019-05-10T05:22:31.377Z,9.5
2019-05-10T05:23:38.607Z,9.4
2019-05-10T05:24:45.549Z,9.4
2019-05-10T05:25:52.503Z,9.3
2019-05-10T05:26:59.697Z,9.3
2019-05-10T05:28:08.992Z,9.3
2019-05-10T05:29:16.209Z,9.3
2019-05-10T05:30:23.665Z,9.3
2019-05-10T05:31:30.870Z,9.3
2019-05-10T05:32:45.658Z,9.3
2019-05-10T05:33:52.974Z,9.3
2019-05-10T05:34:59.908Z,9.4
2019-05-10T05:36:06.572Z,9.4
2019-05-10T05:37:13.782Z,9.6
2019-05-10T05:38:21.060Z,9.6
2019-05-10T05:39:28.286Z,9.6
2019-05-10T05:40:35.497Z,9.7
2019-05-10T05:41:51.804Z,9.7
2019-05-10T05:43:09.799Z,9.7
2019-05-10T22:00:06.857Z,11.2
2019-05-10T22:01:14.094Z,11
2019-05-10T22:02:21.027Z,11.1
2019-05-10T22:03:27.962Z,11
2019-05-10T22:04:34.899Z,11
2019-05-10T22:05:41.833Z,11
2019-05-10T22:06:49.033Z,11
2019-05-10T22:07:56.233Z,11
2019-05-10T22:09:03.448Z,11
2019-05-10T22:10:10.385Z,10.9
2019-05-10T22:11:17.338Z,10.9
2019-05-10T22:12:24.547Z,10.9
2019-05-10T22:13:31.763Z,10.9
2019-05-10T22:14:38.972Z,10.8
2019-05-10T22:15:46.174Z,10.9
2019-05-10T22:16:53.384Z,10.8
2019-05-10T22:18:00.626Z,10.8
2019-05-10T22:19:07.835Z,10.8
2019-05-10T22:20:14.770Z,10.8
2019-05-10T22:21:21.979Z,10.8
2019-05-10T22:22:28.910Z,10.8
2019-05-10T22:23:36.123Z,10.8
2019-05-10T22:24:43.047Z,10.7
2019-05-10T22:25:49.974Z,10.7
2019-05-10T22:26:56.921Z,10.7
2019-05-10T22:28:04.123Z,10.7
2019-05-10T22:29:11.331Z,10.6
2019-05-10T22:30:18.258Z,10.6
2019-05-10T22:31:25.465Z,10.6
2019-05-10T22:32:32.681Z,10.6
2019-05-10T22:33:39.886Z,10.5
2019-05-10T22:34:46.820Z,10.5
2019-05-10T22:35:54.024Z,10.5
2019-05-10T22:37:01.229Z,10.5
2019-05-10T22:38:08.445Z,10.4
2019-05-10T22:39:15.366Z,10.4
2019-05-10T22:40:22.081Z,10.4
2019-05-10T22:41:29.286Z,10.4
2019-05-10T22:42:36.487Z,10.4
2019-05-10T22:43:43.686Z,10.4
2019-05-10T22:44:50.896Z,10.4
2019-05-10T22:45:58.094Z,10.4
2019-05-10T22:47:05.026Z,10.4
2019-05-10T22:48:11.954Z,10.4
2019-05-10T22:49:19.155Z,10.3
2019-05-10T22:50:26.081Z,10.3
2019-05-10T22:51:33.287Z,10.3
2019-05-10T22:52:40.496Z,10.3
2019-05-10T22:54:00.365Z,10.3
2019-05-10T22:55:07.627Z,10.2
2019-05-10T22:56:14.828Z,10.2
2019-05-10T22:57:22.102Z,10.2
2019-05-10T22:58:28.759Z,10.2
2019-05-10T22:59:35.702Z,10.2
2019-05-10T23:00:42.908Z,10.2
2019-05-10T23:01:50.116Z,10.2
2019-05-10T23:02:57.320Z,10.2
2019-05-10T23:04:04.523Z,10.2
2019-05-10T23:05:11.732Z,10.1
2019-05-10T23:06:18.953Z,10.1
2019-05-10T23:07:26.149Z,10.1
2019-05-10T23:08:33.081Z,10.1
2019-05-10T23:09:40.286Z,10
2019-05-10T23:10:46.945Z,10.1
2019-05-10T23:11:53.876Z,10
2019-05-10T23:13:00.811Z,10.1
2019-05-10T23:14:08.024Z,10
2019-05-10T23:15:15.229Z,10
2019-05-10T23:16:22.432Z,10
2019-05-10T23:17:29.636Z,9.9
2019-05-10T23:18:36.836Z,9.9
2019-05-10T23:19:44.049Z,9.8
2019-05-10T23:20:51.252Z,9.9
2019-05-10T23:21:58.189Z,9.9
2019-05-10T23:23:05.119Z,9.8
2019-05-10T23:24:12.325Z,9.8
2019-05-10T23:25:19.600Z,9.8
2019-05-10T23:26:26.793Z,9.8
2019-05-10T23:27:33.993Z,9.7
2019-05-10T23:28:41.201Z,9.8
2019-05-10T23:29:48.130Z,9.7
2019-05-10T23:30:55.335Z,9.7
2019-05-10T23:32:02.540Z,9.7
2019-05-10T23:33:09.739Z,9.8
2019-05-10T23:34:16.673Z,9.7
2019-05-10T23:35:23.872Z,9.7
2019-05-10T23:36:31.073Z,9.7
2019-05-10T23:37:38.277Z,9.7
2019-05-10T23:38:44.933Z,9.8
2019-05-10T23:39:52.133Z,9.8
2019-05-10T23:40:59.331Z,9.8
2019-05-10T23:42:06.019Z,9.8
2019-05-10T23:43:13.226Z,9.8
2019-05-10T23:44:20.431Z,9.8
2019-05-10T23:45:27.670Z,9.8
2019-05-10T23:46:34.873Z,9.8
2019-05-10T23:47:42.075Z,9.9
2019-05-10T23:48:49.006Z,9.9
2019-05-10T23:49:56.198Z,9.9
2019-05-10T23:51:03.135Z,9.9
2019-05-10T23:52:10.407Z,9.9
2019-05-10T23:53:17.686Z,9.9
2019-05-10T23:54:24.896Z,9.9
2019-05-10T23:55:32.099Z,9.9
2019-05-10T23:56:39.310Z,9.9
2019-05-10T23:57:46.513Z,9.8
2019-05-10T23:58:53.445Z,9.8
